Time;durP1;ratioP1;P1;durP2;ratioP2;P2;SDS_P1;SDS_P2;PMS_P1;PMS_P2;Temp;Humidity;BMP_temperature;BMP_pressure;BME280_temperature;BME280_humidity;BME280_pressure;Samples;Min_cycle;Max_cycle;Signal;HPM_P1;HPM_P2
2021/04/16 00:03:44;;;;;;;11.07;7.07;;;7.30;67.90;;;;;;10196104;28;20047;-78
2021/04/16 00:08:38;;;;;;;11.05;6.65;;;6.80;67.90;;;;;;10214775;28;20113;-79
2021/04/16 00:13:33;;;;;;;10.43;7.38;;;7.70;68.40;;;;;;10210041;28;20510;-79
2021/04/16 00:18:29;;;;;;;11.25;7.00;;;7.50;68.80;;;;;;10211165;28;20075;-78
2021/04/16 00:23:23;;;;;;;11.02;7.47;;;7.60;68.20;;;;;;10212709;28;20078;-82
2021/04/16 00:28:17;;;;;;;11.38;7.00;;;7.00;68.30;;;;;;10213067;28;20075;-82
2021/04/16 00:33:12;;;;;;;13.52;7.93;;;;;;;;;;10214842;28;20043;-83
2021/04/16 00:38:06;;;;;;;11.05;7.45;;;7.40;68.30;;;;;;10212396;28;20087;-82
2021/04/16 00:43:01;;;;;;;11.32;7.00;;;7.30;68.10;;;;;;10213328;28;20464;-82
2021/04/16 00:47:56;;;;;;;13.00;8.25;;;;;;;;;;10213514;28;20093;-82
2021/04/16 00:52:53;;;;;;;11.45;7.90;;;;;;;;;;10214305;28;20081;-80
2021/04/16 00:57:46;;;;;;;11.50;7.18;;;6.80;68.20;;;;;;10213092;28;20087;-78
2021/04/16 01:02:39;;;;;;;11.95;7.35;;;8.20;67.90;;;;;;10213546;28;20075;-79
2021/04/16 01:07:33;;;;;;;12.82;8.13;;;6.60;67.90;;;;;;10213749;28;20051;-81
2021/04/16 01:12:27;;;;;;;13.10;8.13;;;8.00;69.40;;;;;;10212805;28;20091;-80
2021/04/16 01:17:20;;;;;;;11.40;7.60;;;;;;;;;;10213293;28;20079;-81
2021/04/16 01:22:19;;;;;;;12.38;7.78;;;7.90;68.00;;;;;;10212931;28;20051;-81
2021/04/16 01:27:13;;;;;;;12.45;7.68;;;7.90;69.20;;;;;;10212583;28;20140;-80
2021/04/16 01:32:07;;;;;;;15.32;8.18;;;7.60;69.40;;;;;;10212632;28;20071;-80
2021/04/16 01:37:01;;;;;;;14.90;8.60;;;7.40;69.50;;;;;;10213117;28;20094;-80
2021/04/16 01:41:55;;;;;;;15.00;8.15;;;;;;;;;;10212561;28;20083;-81
2021/04/16 01:46:57;;;;;;;13.13;8.25;;;7.40;68.40;;;;;;10212740;28;20086;-82
2021/04/16 01:51:51;;;;;;;15.77;9.30;;;8.20;70.80;;;;;;10219294;28;20090;-82
2021/04/16 01:56:46;;;;;;;14.52;8.68;;;;;;;;;;10219543;28;20425;-82
2021/04/16 02:01:39;;;;;;;16.02;9.40;;;;;;;;;;10219855;28;20078;-82
2021/04/16 02:06:35;;;;;;;16.10;9.05;;;7.10;70.40;;;;;;10219113;28;20599;-83
2021/04/16 02:11:28;;;;;;;15.50;9.23;;;5.80;68.20;;;;;;10218958;28;20048;-82
2021/04/16 02:16:21;;;;;;;16.27;10.00;;;5.40;69.80;;;;;;10219030;28;20079;-82
2021/04/16 02:21:17;;;;;;;15.07;8.90;;;8.10;71.30;;;;;;10218929;28;20074;-82
2021/04/16 02:26:11;;;;;;;17.50;9.85;;;6.10;68.90;;;;;;10219174;28;20070;-79
2021/04/16 02:31:04;;;;;;;15.77;9.50;;;6.10;70.40;;;;;;10218750;28;20079;-78
2021/04/16 02:35:57;;;;;;;18.35;9.70;;;5.50;69.60;;;;;;10218235;28;20066;-80
2021/04/16 02:40:50;;;;;;;17.45;10.50;;;6.50;69.80;;;;;;10217574;28;20094;-81
2021/04/16 02:45:46;;;;;;;15.70;9.45;;;6.50;70.90;;;;;;10217948;28;20407;-80
2021/04/16 02:50:39;;;;;;;16.98;10.07;;;;;;;;;;10218073;28;20048;-81
2021/04/16 02:55:33;;;;;;;18.65;10.27;;;;;;;;;;10216925;28;20495;-81
2021/04/16 03:00:28;;;;;;;17.60;10.52;;;;;;;;;;10217201;28;20070;-82
2021/04/16 03:05:23;;;;;;;17.95;10.25;;;6.10;69.10;;;;;;10217435;28;20071;-82
2021/04/16 03:10:17;;;;;;;16.45;9.65;;;;;;;;;;10216813;28;20394;-82
2021/04/16 03:15:13;;;;;;;17.73;10.55;;;;;;;;;;10216401;28;20903;-81
2021/04/16 03:20:09;;;;;;;18.63;10.13;;;6.10;71.10;;;;;;10215905;28;20402;-81
2021/04/16 03:25:03;;;;;;;16.98;10.15;;;;;;;;;;10215947;28;20091;-81
2021/04/16 03:29:56;;;;;;;15.13;9.18;;;6.40;71.20;;;;;;10197334;28;20051;-81
2021/04/16 03:34:50;;;;;;;19.52;11.23;;;;;;;;;;10215732;28;20086;-81
2021/04/16 03:39:43;;;;;;;16.15;10.07;;;;;;;;;;10215570;28;20087;-81
2021/04/16 03:44:37;;;;;;;16.42;9.85;;;5.90;69.60;;;;;;10214950;28;20056;-81
2021/04/16 03:49:30;;;;;;;16.77;10.25;;;;;;;;;;10214889;28;20079;-81
2021/04/16 03:54:24;;;;;;;16.35;10.18;;;;;;;;;;10214640;28;20105;-81
2021/04/16 03:59:19;;;;;;;14.60;8.63;;;6.80;71.70;;;;;;10213918;28;20055;-82
2021/04/16 04:04:13;;;;;;;15.27;9.02;;;5.90;70.90;;;;;;10214677;28;20047;-81
2021/04/16 04:09:07;;;;;;;14.88;8.90;;;6.10;71.40;;;;;;10214715;28;20050;-80
2021/04/16 04:14:01;;;;;;;15.32;9.27;;;5.80;71.20;;;;;;10214677;28;20885;-81
2021/04/16 04:18:54;;;;;;;14.50;8.60;;;6.00;70.00;;;;;;10214972;28;20075;-80
2021/04/16 04:23:49;;;;;;;14.85;9.45;;;;;;;;;;10213815;28;20044;-80
2021/04/16 04:28:42;;;;;;;16.52;9.52;;;;;;;;;;10213424;28;20097;-80
2021/04/16 04:33:36;;;;;;;15.15;9.18;;;6.00;71.80;;;;;;10213541;28;20074;-80
2021/04/16 04:38:29;;;;;;;14.25;8.10;;;5.70;71.60;;;;;;10194174;28;20083;-81
2021/04/16 04:43:24;;;;;;;15.70;9.75;;;;;;;;;;10213544;28;20083;-81
2021/04/16 04:48:17;;;;;;;14.32;9.20;;;;;;;;;;10194317;28;20055;-81
2021/04/16 04:53:10;;;;;;;15.93;9.10;;;6.10;71.20;;;;;;10195654;28;20082;-81
2021/04/16 04:58:06;;;;;;;16.83;9.45;;;;;;;;;;10213322;28;20502;-82
2021/04/16 05:03:00;;;;;;;14.48;8.57;;;6.10;69.30;;;;;;10212512;28;20230;-82
2021/04/16 05:07:54;;;;;;;13.57;8.98;;;;;;;;;;10212498;28;20062;-80
2021/04/16 05:12:48;;;;;;;14.93;8.57;;;;;;;;;;10193402;28;20083;-80
2021/04/16 05:17:41;;;;;;;13.07;8.18;;;5.70;69.90;;;;;;10212168;28;20481;-80
2021/04/16 05:22:35;;;;;;;15.98;8.45;;;6.30;70.40;;;;;;10213510;28;20382;-79
2021/04/16 05:27:29;;;;;;;14.23;7.57;;;6.90;70.80;;;;;;10219974;28;20050;-79
2021/04/16 05:32:22;;;;;;;11.02;7.38;;;;;;;;;;10220328;28;20094;-80
2021/04/16 05:37:16;;;;;;;10.45;7.10;;;7.00;71.10;;;;;;10201002;28;20087;-80
2021/04/16 05:42:13;;;;;;;12.95;7.65;;;;;;;;;;10219741;28;20055;-80
2021/04/16 05:47:06;;;;;;;12.15;7.63;;;6.80;70.80;;;;;;10218463;28;20090;-80
2021/04/16 05:51:59;;;;;;;11.73;7.50;;;;;;;;;;10218935;28;20055;-81
2021/04/16 05:56:53;;;;;;;15.02;7.60;;;5.80;70.10;;;;;;10219053;28;20158;-82
2021/04/16 06:01:47;;;;;;;10.90;7.68;;;5.90;69.80;;;;;;10218497;28;20131;-78
2021/04/16 06:06:40;;;;;;;10.90;6.90;;;;;;;;;;10199923;28;20090;-81
2021/04/16 06:11:33;;;;;;;13.52;6.90;;;5.60;69.60;;;;;;10200003;28;20367;-78
2021/04/16 06:16:26;;;;;;;11.90;7.22;;;5.80;69.30;;;;;;10216883;28;20079;-79
2021/04/16 06:21:21;;;;;;;12.75;7.05;;;6.60;67.90;;;;;;10217985;28;20047;-81
2021/04/16 06:26:16;;;;;;;10.57;6.68;;;7.20;68.00;;;;;;10218196;28;20048;-81
2021/04/16 06:31:10;;;;;;;9.55;5.88;;;5.60;68.50;;;;;;10198670;28;20039;-82
2021/04/16 06:36:07;;;;;;;11.52;6.60;;;7.60;68.10;;;;;;10217382;28;20082;-80
2021/04/16 06:41:06;;;;;;;10.13;6.13;;;8.30;69.90;;;;;;10217818;28;20147;-80
2021/04/16 06:46:00;;;;;;;11.32;6.95;;;;;;;;;;10218233;28;20052;-81
2021/04/16 06:50:58;;;;;;;10.88;6.32;;;7.80;67.70;;;;;;10217157;28;20070;-81
2021/04/16 06:55:57;;;;;;;12.43;6.93;;;7.10;68.70;;;;;;10197652;28;20074;-81
2021/04/16 07:01:01;;;;;;;11.57;6.85;;;;;;;;;;10217923;28;20048;-79
2021/04/16 07:05:58;;;;;;;9.23;5.90;;;6.90;67.60;;;;;;10217089;28;20089;-79
2021/04/16 07:10:53;;;;;;;9.27;5.53;;;;;;;;;;10216051;28;20039;-80
2021/04/16 07:15:47;;;;;;;10.32;6.20;;;7.30;67.90;;;;;;10215911;28;20106;-83
2021/04/16 07:20:41;;;;;;;9.15;6.15;;;;;;;;;;10216068;28;20462;-80
2021/04/16 07:25:38;;;;;;;11.90;6.13;;;;;;;;;;10195699;28;20074;-80
2021/04/16 07:30:38;;;;;;;8.73;6.00;;;7.40;67.20;;;;;;10215798;28;20087;-82
2021/04/16 07:35:32;;;;;;;;;;;8.10;66.00;;;;;;10219206;28;20502;-81
2021/04/16 07:40:28;;;;;;;13.57;6.95;;;;;;;;;;10214151;28;20286;-81
2021/04/16 07:45:46;;;;;;;12.40;6.47;;;8.40;65.30;;;;;;10194899;28;20052;-82
2021/04/16 07:50:42;;;;;;;8.30;5.28;;;8.00;66.60;;;;;;10214439;28;20083;-79
2021/04/16 07:55:36;;;;;;;9.68;5.00;;;;;;;;;;10213323;28;20079;-83
2021/04/16 08:00:33;;;;;;;9.00;5.43;;;7.50;65.70;;;;;;10213043;28;20070;-81
2021/04/16 08:05:32;;;;;;;8.65;5.88;;;7.60;63.80;;;;;;10212995;28;20073;-83
2021/04/16 08:10:28;;;;;;;;;;;8.70;64.40;;;;;;10213535;28;20048;-81
2021/04/16 08:15:32;;;;;;;9.07;5.18;;;;;;;;;;10214597;28;19942;-84
2021/04/16 08:20:35;;;;;;;8.85;5.65;;;8.00;64.80;;;;;;10211766;28;20083;-75
2021/04/16 08:25:37;;;;;;;9.80;5.93;;;;;;;;;;10210672;28;20468;-75
2021/04/16 08:30:43;;;;;;;7.75;5.72;;;8.40;63.50;;;;;;10210055;28;20093;-75
2021/04/16 08:35:40;;;;;;;8.65;6.07;;;;;;;;;;10191884;28;20052;-74
2021/04/16 08:40:36;;;;;;;8.90;5.95;;;9.50;65.50;;;;;;10211289;28;20091;-76
2021/04/16 08:45:30;;;;;;;10.10;5.68;;;;;;;;;;10192518;28;20102;-75
2021/04/16 08:50:30;;;;;;;8.80;5.50;;;8.70;62.40;;;;;;10211275;28;20089;-75
2021/04/16 08:55:30;;;;;;;7.60;5.57;;;10.40;65.00;;;;;;10212295;28;20079;-76
2021/04/16 09:00:32;;;;;;;9.82;6.13;;;8.20;62.40;;;;;;10217598;28;20883;-76
2021/04/16 09:05:29;;;;;;;9.38;5.53;;;9.60;63.00;;;;;;10220644;28;20449;-75
2021/04/16 09:10:44;;;;;;;8.52;5.78;;;8.50;61.70;;;;;;10218598;28;20075;-77
2021/04/16 09:15:41;;;;;;;9.73;5.70;;;10.80;63.70;;;;;;10218393;28;20087;-75
2021/04/16 09:21:08;;;;;;;7.38;5.40;;;9.50;61.60;;;;;;10218376;28;20075;-76
2021/04/16 09:26:02;;;;;;;7.38;4.93;;;10.60;64.10;;;;;;10213902;28;20501;-75
2021/04/16 09:30:57;;;;;;;8.43;5.22;;;;;;;;;;10217878;28;20083;-75
2021/04/16 09:36:02;;;;;;;8.13;5.38;;;;;;;;;;10218116;28;20102;-75
2021/04/16 09:41:13;;;;;;;7.35;4.85;;;9.80;61.20;;;;;;10217468;28;20959;-74
2021/04/16 09:46:21;;;;;;;7.75;5.30;;;;;;;;;;10230258;28;20091;-76
2021/04/16 09:51:20;;;;;;;9.25;5.40;;;;;;;;;;10217303;28;20089;-77
2021/04/16 09:56:18;;;;;;;8.68;5.47;;;;;;;;;;10217555;28;20102;-75
2021/04/16 10:01:15;;;;;;;9.25;5.65;;;10.20;61.50;;;;;;10216578;28;20043;-75
2021/04/16 10:06:26;;;;;;;9.88;5.90;;;10.90;61.70;;;;;;10198367;28;20528;-75
2021/04/16 10:11:21;;;;;;;10.93;5.80;;;;;;;;;;10209287;28;20086;-75
2021/04/16 10:16:20;;;;;;;11.48;5.63;;;10.80;62.20;;;;;;10215865;28;20482;-74
2021/04/16 10:21:25;;;;;;;8.65;5.07;;;10.80;60.70;;;;;;10215969;28;20083;-75
2021/04/16 12:38:57;;;;;;;9.98;6.45;;;10.70;57.30;;;;;;10082424;28;20080;-71
2021/04/16 12:43:52;;;;;;;10.02;6.57;;;10.30;57.10;;;;;;10084525;28;20084;-80
2021/04/16 12:48:47;;;;;;;9.77;6.40;;;10.20;58.40;;;;;;10190412;28;20087;-77
2021/04/16 12:53:40;;;;;;;9.27;5.75;;;;;;;;;;10211816;28;20055;-77
2021/04/16 12:58:39;;;;;;;18.63;9.68;;;10.00;58.50;;;;;;10210989;28;20079;-76
2021/04/16 13:03:36;;;;;;;10.13;6.55;;;11.40;58.90;;;;;;10211331;28;20043;-77
2021/04/16 13:08:31;;;;;;;8.52;5.60;;;;;;;;;;10208716;28;20079;-76
2021/04/16 13:13:25;;;;;;;10.77;5.93;;;9.80;58.50;;;;;;10210672;28;20411;-76
2021/04/16 13:18:27;;;;;;;7.95;5.57;;;10.40;58.90;;;;;;10212808;28;20102;-76
2021/04/16 13:23:21;;;;;;;12.32;6.10;;;9.40;57.40;;;;;;10212758;28;20474;-76
2021/04/16 13:28:16;;;;;;;8.90;5.78;;;;;;;;;;10213360;28;20482;-77
2021/04/16 13:33:12;;;;;;;11.45;7.10;;;10.00;58.60;;;;;;10211322;28;20085;-78
2021/04/16 13:38:07;;;;;;;8.75;6.10;;;10.80;58.70;;;;;;10211211;28;20090;-76
2021/04/16 13:43:01;;;;;;;8.73;6.10;;;;;;;;;;10211931;28;20050;-77
2021/04/16 13:47:56;;;;;;;10.38;5.90;;;9.60;58.40;;;;;;10218596;28;20180;-76
2021/04/16 13:52:50;;;;;;;10.10;6.47;;;10.40;58.70;;;;;;10200792;28;20067;-78
2021/04/16 13:57:46;;;;;;;8.48;5.82;;;9.10;57.10;;;;;;10219775;28;20079;-77
2021/04/16 14:02:46;;;;;;;8.63;6.00;;;10.60;58.80;;;;;;10220214;28;20481;-76
2021/04/16 14:07:43;;;;;;;9.50;6.03;;;10.80;58.20;;;;;;10219795;28;20094;-77
2021/04/16 14:12:37;;;;;;;10.73;6.60;;;;;;;;;;10200785;28;20425;-76
2021/04/16 14:17:35;;;;;;;9.07;6.13;;;11.00;58.00;;;;;;10218406;28;20082;-77
2021/04/16 14:22:33;;;;;;;7.90;5.82;;;9.20;57.80;;;;;;10218434;28;20052;-78
2021/04/16 14:27:27;;;;;;;11.30;6.28;;;10.30;58.50;;;;;;10216248;28;20075;-78
2021/04/16 14:32:24;;;;;;;9.48;6.38;;;11.10;58.90;;;;;;10216084;28;20513;-78
2021/04/16 14:37:19;;;;;;;9.90;5.93;;;9.90;58.40;;;;;;10217268;28;20094;-77
2021/04/16 14:42:15;;;;;;;9.98;6.30;;;10.90;58.90;;;;;;10215792;28;20094;-75
2021/04/16 14:47:09;;;;;;;12.05;6.93;;;9.80;58.20;;;;;;10214866;28;20079;-77
2021/04/16 14:52:04;;;;;;;12.55;7.07;;;;;;;;;;10215194;28;20091;-78
2021/04/16 14:56:59;;;;;;;11.90;7.47;;;9.90;58.30;;;;;;10196272;28;20094;-77
2021/04/16 15:01:52;;;;;;;10.98;7.10;;;9.50;58.40;;;;;;10216364;28;20047;-76
2021/04/16 15:06:48;;;;;;;11.73;7.13;;;10.50;58.90;;;;;;10214880;28;20090;-77
2021/04/16 15:11:44;;;;;;;10.70;7.38;;;9.60;58.10;;;;;;10215965;28;20075;-77
2021/04/16 15:16:42;;;;;;;11.55;7.20;;;11.10;58.00;;;;;;10216006;28;20075;-79
2021/04/16 15:21:36;;;;;;;11.38;7.60;;;;;;;;;;10227180;28;20082;-80
2021/04/16 15:26:33;;;;;;;11.10;7.22;;;10.90;58.70;;;;;;10214133;28;20079;-78
2021/04/16 15:31:31;;;;;;;11.15;7.55;;;11.60;58.40;;;;;;10213724;28;20473;-77
2021/04/16 15:47:00;;;;;;;11.60;7.53;;;10.30;57.60;;;;;;10210680;28;20079;-77
2021/04/16 15:51:54;;;;;;;10.70;6.85;;;;;;;;;;10191381;28;20536;-78
2021/04/16 15:56:51;;;;;;;10.55;6.53;;;10.90;58.50;;;;;;10194999;28;20072;-77
2021/04/16 16:01:44;;;;;;;13.60;7.38;;;10.50;58.20;;;;;;10213341;28;20076;-77
2021/04/16 16:06:39;;;;;;;10.93;7.18;;;11.30;57.80;;;;;;10212946;28;20083;-77
2021/04/16 16:11:35;;;;;;;12.07;6.97;;;11.00;57.80;;;;;;10213210;28;20082;-77
2021/04/16 16:16:30;;;;;;;11.38;6.75;;;10.40;57.30;;;;;;10213492;28;20078;-76
2021/04/16 16:21:23;;;;;;;14.30;7.38;;;10.90;58.40;;;;;;10194384;28;20516;-78
2021/04/16 16:26:19;;;;;;;12.30;7.70;;;10.70;58.30;;;;;;10212516;28;20078;-77
2021/04/16 16:31:13;;;;;;;10.57;6.55;;;;;;;;;;10209305;28;20082;-76
2021/04/16 16:36:08;;;;;;;13.18;6.53;;;13.00;59.30;;;;;;10211030;28;20098;-77
2021/04/16 16:41:02;;;;;;;10.75;6.80;;;10.80;57.50;;;;;;10212253;28;20106;-77
2021/04/16 16:45:57;;;;;;;10.05;6.50;;;9.70;57.50;;;;;;10212616;28;20091;-76
2021/04/16 16:50:52;;;;;;;11.73;6.32;;;12.80;59.20;;;;;;10212376;28;20090;-76
2021/04/16 16:55:46;;;;;;;10.90;6.28;;;11.00;57.50;;;;;;10212771;28;20090;-77
2021/04/16 17:00:44;;;;;;;10.70;6.45;;;12.10;58.90;;;;;;10212032;28;20087;-75
2021/04/16 17:05:40;;;;;;;11.63;7.05;;;11.60;57.80;;;;;;10192985;28;20083;-77
2021/04/16 17:10:33;;;;;;;10.07;6.57;;;10.30;58.00;;;;;;10211522;28;20461;-77
2021/04/16 17:15:32;;;;;;;10.77;6.72;;;12.60;59.10;;;;;;10212150;28;20506;-77
2021/04/16 17:20:25;;;;;;;12.05;7.53;;;10.40;57.30;;;;;;10199124;28;20078;-77
2021/04/16 17:25:19;;;;;;;11.30;6.68;;;10.30;58.10;;;;;;10220013;28;20094;-77
2021/04/16 17:30:20;;;;;;;11.65;6.35;;;10.00;58.20;;;;;;10219468;28;20086;-77
2021/04/16 17:35:17;;;;;;;12.63;7.25;;;10.60;58.00;;;;;;10219495;28;20461;-77
2021/04/16 17:40:12;;;;;;;15.77;8.13;;;11.20;58.20;;;;;;10218768;28;20539;-76
2021/04/16 17:45:09;;;;;;;11.35;7.38;;;12.30;59.70;;;;;;10220150;28;20079;-77
2021/04/16 17:50:06;;;;;;;12.20;7.15;;;10.70;58.90;;;;;;10220411;28;20090;-76
2021/04/16 17:55:01;;;;;;;14.32;7.85;;;10.70;58.40;;;;;;10220483;28;20043;-77
2021/04/16 17:59:54;;;;;;;15.05;7.90;;;12.70;60.30;;;;;;10219551;28;20090;-78
2021/04/16 18:04:47;;;;;;;13.15;7.72;;;11.00;58.60;;;;;;10219891;28;20181;-77
2021/04/16 18:09:41;;;;;;;13.20;7.50;;;;;;;;;;10219501;28;20060;-76
2021/04/16 18:14:36;;;;;;;12.90;7.85;;;;;;;;;;10219312;28;20048;-77
2021/04/16 18:19:31;;;;;;;12.95;7.65;;;;;;;;;;10218928;28;20489;-78
2021/04/16 18:24:29;;;;;;;11.77;7.05;;;9.20;58.90;;;;;;10219330;28;20043;-78
2021/04/16 18:29:24;;;;;;;15.40;7.57;;;10.40;59.50;;;;;;10218783;28;20082;-77
2021/04/16 18:34:19;;;;;;;12.95;7.53;;;;;;;;;;10218708;28;20082;-77
2021/04/16 18:39:17;;;;;;;15.52;8.20;;;10.00;58.60;;;;;;10218746;28;20094;-77
2021/04/16 18:44:12;;;;;;;14.45;8.50;;;10.50;59.60;;;;;;10219435;28;20343;-77
2021/04/16 18:49:06;;;;;;;17.10;8.38;;;10.90;60.00;;;;;;10198781;28;20513;-77
2021/04/16 18:54:04;;;;;;;18.33;8.07;;;11.20;59.50;;;;;;10217453;28;20101;-76
2021/04/16 18:58:57;;;;;;;14.85;8.45;;;9.40;59.50;;;;;;10217539;28;20541;-76
2021/04/16 19:03:50;;;;;;;14.00;8.05;;;10.20;59.10;;;;;;10217743;28;20048;-77
2021/04/16 19:08:44;;;;;;;14.07;8.63;;;10.40;60.10;;;;;;10218515;28;20070;-77
2021/04/16 19:13:39;;;;;;;15.32;8.95;;;;;;;;;;10217432;28;20511;-77
2021/04/16 19:18:34;;;;;;;17.45;8.68;;;10.10;60.00;;;;;;10217716;28;20083;-77
2021/04/16 19:23:32;;;;;;;14.68;8.88;;;11.30;60.00;;;;;;10216871;28;20090;-76
2021/04/16 19:28:25;;;;;;;15.27;8.88;;;10.90;59.90;;;;;;10216494;28;20074;-76
2021/04/16 19:33:20;;;;;;;17.50;9.35;;;8.80;58.80;;;;;;10216215;28;20062;-77
2021/04/16 19:38:18;;;;;;;16.83;9.07;;;10.00;60.40;;;;;;10216245;28;20079;-78
2021/04/16 19:43:13;;;;;;;16.75;9.25;;;10.60;59.90;;;;;;10216175;28;20075;-78
2021/04/16 20:05:41;;;;;;;15.98;9.40;;;11.10;60.70;;;;;;9830925;29;20406;-76
2021/04/16 20:21:08;;;;;;;17.35;10.20;;;11.10;61.00;;;;;;9854008;29;20079;-75
2021/04/16 20:26:09;;;;;;;16.92;10.18;;;11.20;61.10;;;;;;9868670;29;20087;-76
2021/04/16 20:31:04;;;;;;;15.18;9.45;;;10.30;60.50;;;;;;9867364;29;20490;-75
2021/04/16 20:36:04;;;;;;;17.83;10.40;;;10.00;60.30;;;;;;9868656;29;20055;-77
2021/04/16 20:40:59;;;;;;;16.40;10.03;;;10.20;60.50;;;;;;9879668;29;20083;-76
2021/04/16 20:45:56;;;;;;;18.40;10.32;;;10.30;60.70;;;;;;9867302;28;20067;-76
2021/04/16 20:50:51;;;;;;;18.17;9.43;;;9.60;61.10;;;;;;9869690;29;20051;-79
2021/04/16 20:55:48;;;;;;;19.63;11.13;;;8.90;60.90;;;;;;9874750;29;20478;-77
2021/04/16 21:00:44;;;;;;;18.85;10.15;;;8.80;59.90;;;;;;9876261;29;20090;-77
2021/04/16 21:05:40;;;;;;;16.33;10.32;;;9.80;61.70;;;;;;9877693;29;20086;-76
2021/04/16 21:10:35;;;;;;;19.48;11.10;;;8.80;60.00;;;;;;9877697;29;20353;-75
2021/04/16 21:15:31;;;;;;;15.88;9.05;;;8.70;60.00;;;;;;9876519;29;20474;-76
2021/04/16 21:20:41;;;;;;;15.70;9.32;;;10.50;62.40;;;;;;9860583;29;20506;-77
2021/04/16 21:25:35;;;;;;;15.13;9.17;;;8.60;60.10;;;;;;9876516;29;20498;-77
2021/04/16 21:30:29;;;;;;;15.18;8.88;;;10.80;61.60;;;;;;9860177;29;20067;-77
2021/04/16 21:35:28;;;;;;;15.38;9.10;;;10.70;63.30;;;;;;9875997;29;20079;-76
2021/04/16 21:40:35;;;;;;;14.67;8.67;;;9.70;62.90;;;;;;9876946;29;20516;-76
2021/04/16 21:45:38;;;;;;;14.50;9.32;;;9.10;62.60;;;;;;9889267;29;20402;-76
2021/04/16 21:50:35;;;;;;;16.83;9.70;;;9.70;61.90;;;;;;9883801;29;20083;-77
2021/04/16 21:55:31;;;;;;;16.50;9.20;;;8.10;60.90;;;;;;9860360;29;20102;-76
2021/04/16 22:00:29;;;;;;;13.95;8.75;;;8.40;61.30;;;;;;9878269;29;20094;-76
2021/04/16 22:05:27;;;;;;;16.58;9.90;;;10.00;63.70;;;;;;9874281;29;20083;-76
2021/04/16 22:10:37;;;;;;;17.65;10.00;;;10.20;62.50;;;;;;9870660;29;20087;-76
2021/04/16 22:15:36;;;;;;;17.77;10.27;;;10.20;62.80;;;;;;9853410;29;20083;-76
2021/04/16 22:20:33;;;;;;;19.45;11.27;;;9.20;63.50;;;;;;9870448;29;20078;-78
2021/04/16 22:25:31;;;;;;;18.05;10.60;;;10.30;63.00;;;;;;9871030;29;20086;-78
2021/04/16 22:30:35;;;;;;;18.13;10.20;;;9.90;62.80;;;;;;9870244;29;20087;-76
2021/04/16 22:35:33;;;;;;;17.75;10.98;;;10.20;63.90;;;;;;9869806;29;20502;-77
2021/04/16 22:40:28;;;;;;;17.15;10.18;;;10.20;63.20;;;;;;9869971;29;20094;-76
2021/04/16 22:45:41;;;;;;;17.25;10.55;;;10.40;63.70;;;;;;9869419;29;20094;-77
2021/04/16 22:50:38;;;;;;;16.75;10.23;;;9.50;63.40;;;;;;9869118;29;20130;-77
2021/04/16 22:55:35;;;;;;;16.95;9.93;;;8.00;62.60;;;;;;9852694;29;20087;-77
2021/04/16 23:00:32;;;;;;;18.17;10.60;;;8.70;64.70;;;;;;9880937;29;20470;-76
2021/04/16 23:05:33;;;;;;;16.90;10.35;;;;;;;;;;9855339;29;20051;-77
2021/04/16 23:10:30;;;;;;;16.70;10.23;;;7.20;63.80;;;;;;9880649;29;20083;-78
2021/04/16 23:15:32;;;;;;;17.13;9.85;;;9.30;65.20;;;;;;9868137;29;20072;-77
2021/04/16 23:20:28;;;;;;;22.25;10.75;;;9.90;65.50;;;;;;9850664;29;20114;-77
2021/04/16 23:25:27;;;;;;;18.70;10.30;;;7.60;62.70;;;;;;9866485;29;20055;-77
2021/04/16 23:30:25;;;;;;;18.05;10.70;;;7.60;62.90;;;;;;9867791;29;20086;-76
2021/04/16 23:35:19;;;;;;;17.15;10.98;;;10.20;64.50;;;;;;9867683;29;20079;-77
2021/04/16 23:40:14;;;;;;;19.10;10.50;;;9.40;65.40;;;;;;9850031;29;20080;-78
2021/04/16 23:45:09;;;;;;;17.63;10.65;;;;;;;;;;9866369;29;20044;-76
2021/04/16 23:50:06;;;;;;;17.00;9.77;;;9.00;63.80;;;;;;9868332;29;20500;-78
2021/04/16 23:55:05;;;;;;;18.88;10.88;;;8.90;65.30;;;;;;9850785;29;20085;-79
